This is the latest recevied weather packets stored in our database for station/object KC8JWT. If no packets are shown the sender has not sent any weather packets the latest 1 day(s).
| Time | Temp. | Humidity | Pressure | Rain* | Wind** | Luminosity | Snow |
|---|---|---|---|---|---|---|---|
| 1777993108 | 23.89° C | 58% | 1010 hPa | 0 mm | 4.02 m/s, 252° | 337 W/m² | - |
| 1777992807 | 23.89° C | 59% | 1010.2 hPa | 0 mm | 2.24 m/s, 224° | 512 W/m² | - |
| 1777992504 | 23.33° C | 59% | 1010.2 hPa | 0 mm | 1.79 m/s, 199° | 544 W/m² | - |
| 1777992203 | 23.89° C | 58% | 1010.1 hPa | 0 mm | 5.81 m/s, 278° | 420 W/m² | - |
| 1777991899 | 24.44° C | 58% | 1010.3 hPa | 0 mm | 2.24 m/s, 79° | 753 W/m² | - |
| 1777991597 | 24.44° C | 57% | 1010.1 hPa | 0 mm | 4.92 m/s, 223° | 806 W/m² | - |
| 1777991294 | 23.89° C | 57% | 1010 hPa | 0 mm | 4.02 m/s, 226° | 771 W/m² | - |
| 1777990991 | 22.78° C | 59% | 1010.1 hPa | 0 mm | 2.68 m/s, 214° | 631 W/m² | - |
| 1777990689 | 23.89° C | 59% | 1009.9 hPa | 0 mm | 4.92 m/s, 229° | 424 W/m² | - |
| 1777990386 | 23.89° C | 59% | 1010 hPa | 0 mm | 4.92 m/s, 211° | 625 W/m² | - |
| 1777990081 | 23.89° C | 59% | 1009.9 hPa | 0 mm | 3.13 m/s, 239° | 636 W/m² | - |
| 1777989778 | 23.33° C | 60% | 1009.7 hPa | 0 mm | 1.79 m/s, 193° | 539 W/m² | - |
| 1777989475 | 23.33° C | 60% | 1009.8 hPa | 0 mm | 3.13 m/s, 242° | 542 W/m² | - |
| 1777989172 | 23.33° C | 59% | 1009.7 hPa | 0 mm | 1.79 m/s, 148° | 522 W/m² | - |
| 1777988868 | 22.78° C | 60% | 1009.8 hPa | 0 mm | 0.89 m/s, 223° | 535 W/m² | - |
| 1777988565 | 22.78° C | 62% | 1009.9 hPa | 0 mm | 0.45 m/s, 105° | 572 W/m² | - |
| 1777988262 | 22.78° C | 61% | 1010 hPa | 0 mm | 2.24 m/s, 3° | 511 W/m² | - |
| 1777987958 | 22.22° C | 59% | 1009.9 hPa | 0 mm | 1.79 m/s, 114° | 462 W/m² | - |
| 1777987654 | 22.22° C | 60% | 1010.2 hPa | 0 mm | 2.24 m/s, 154° | 402 W/m² | - |
| 1777987352 | 21.67° C | 61% | 1010.1 hPa | 0 mm | 2.24 m/s, 198° | 372 W/m² | - |
| 1777987049 | 21.67° C | 61% | 1010.2 hPa | 0 mm | 1.34 m/s, 190° | 339 W/m² | - |
| 1777986746 | 21.67° C | 63% | 1010.3 hPa | 0 mm | 2.24 m/s, 168° | 313 W/m² | - |
| 1777986444 | 21.67° C | 63% | 1010.5 hPa | 0 mm | 2.24 m/s, 168° | 313 W/m² | - |
| 1777986142 | 21.67° C | 62% | 1010.6 hPa | 0 mm | 2.68 m/s, 185° | 299 W/m² | - |
| 1777985838 | 21.67° C | 62% | 1010.6 hPa | 0 mm | 2.24 m/s, 101° | 302 W/m² | - |
* Rain latest hour (hover to see other rain measurements)
** Current wind speed in m/s (hover to see current wind gust speed)